8FV YBSU-YBAF
Flight info
| Callsign | 8FV |
|---|---|
| Flight time | 0h 19m |
| Altitude | 11000 |
| Route | DCT |
| Aircraft | K100/L-SBDGRY/S |
Departure
| Time | 2026-04-30 10:05 |
|---|---|
| Airport | Sunshine Coast Airport (YBSU) |
Arrival
| Time | 2026-04-30 10:24 |
|---|---|
| Airport | Brisbane Archerfield Airport (YBAF) |
| Time | Latitude | Longitude | Altitude | Speed | Heading |
|---|---|---|---|---|---|
| 2026-04-30 10:04 | -26.76546 | 153.01394 | 8009 ft | 183 kts | 193° |
| 2026-04-30 10:05 | -26.77788 | 153.01092 | 8009 ft | 183 kts | 193° |
| 2026-04-30 10:05 | -26.79031 | 153.00790 | 8009 ft | 183 kts | 193° |
| 2026-04-30 10:05 | -26.80273 | 153.00489 | 8009 ft | 183 kts | 193° |
| 2026-04-30 10:05 | -26.81501 | 153.00191 | 8009 ft | 183 kts | 193° |
| 2026-04-30 10:06 | -26.82742 | 152.99890 | 8009 ft | 183 kts | 193° |
| 2026-04-30 10:06 | -26.83986 | 152.99587 | 8009 ft | 183 kts | 193° |
| 2026-04-30 10:06 | -26.85229 | 152.99284 | 8009 ft | 183 kts | 193° |
| 2026-04-30 10:06 | -26.86471 | 152.98983 | 8009 ft | 183 kts | 193° |
| 2026-04-30 10:07 | -26.87714 | 152.98681 | 8009 ft | 183 kts | 193° |
| 2026-04-30 10:07 | -26.88957 | 152.98379 | 8009 ft | 183 kts | 193° |
| 2026-04-30 10:07 | -26.90199 | 152.98077 | 8009 ft | 183 kts | 193° |
| 2026-04-30 10:07 | -26.91441 | 152.97775 | 8010 ft | 183 kts | 193° |
| 2026-04-30 10:08 | -26.92684 | 152.97473 | 8009 ft | 183 kts | 193° |
| 2026-04-30 10:08 | -26.93910 | 152.97174 | 8009 ft | 183 kts | 193° |
| 2026-04-30 10:08 | -26.95153 | 152.96873 | 8009 ft | 183 kts | 193° |
| 2026-04-30 10:08 | -26.96395 | 152.96570 | 8009 ft | 183 kts | 193° |
| 2026-04-30 10:09 | -26.97649 | 152.96264 | 8009 ft | 187 kts | 193° |
| 2026-04-30 10:09 | -26.98937 | 152.95951 | 8010 ft | 191 kts | 193° |
| 2026-04-30 10:09 | -27.00239 | 152.95635 | 8010 ft | 192 kts | 193° |
| 2026-04-30 10:09 | -27.01545 | 152.95317 | 8009 ft | 192 kts | 193° |
| 2026-04-30 10:10 | -27.02854 | 152.94997 | 8009 ft | 193 kts | 193° |
| 2026-04-30 10:10 | -27.04146 | 152.94682 | 8009 ft | 193 kts | 193° |
| 2026-04-30 10:10 | -27.05423 | 152.94370 | 7997 ft | 191 kts | 187° |
| 2026-04-30 10:10 | -27.06710 | 152.94058 | 7998 ft | 188 kts | 186° |
| 2026-04-30 10:11 | -27.07983 | 152.93751 | 7997 ft | 187 kts | 186° |
| 2026-04-30 10:11 | -27.09254 | 152.93440 | 7998 ft | 187 kts | 186° |
| 2026-04-30 10:11 | -27.10523 | 152.93131 | 7998 ft | 187 kts | 186° |
| 2026-04-30 10:11 | -27.11792 | 152.92820 | 7998 ft | 187 kts | 186° |
| 2026-04-30 10:12 | -27.13060 | 152.92511 | 8000 ft | 187 kts | 186° |
| 2026-04-30 10:12 | -27.14327 | 152.92201 | 8000 ft | 186 kts | 186° |
| 2026-04-30 10:12 | -27.15577 | 152.91893 | 8004 ft | 186 kts | 186° |
| 2026-04-30 10:12 | -27.16834 | 152.91585 | 8002 ft | 183 kts | 186° |
| 2026-04-30 10:13 | -27.18061 | 152.91287 | 7998 ft | 178 kts | 186° |
| 2026-04-30 10:13 | -27.19260 | 152.90996 | 7995 ft | 175 kts | 186° |
| 2026-04-30 10:13 | -27.20439 | 152.90708 | 7998 ft | 172 kts | 186° |
| 2026-04-30 10:13 | -27.21605 | 152.90421 | 7996 ft | 171 kts | 186° |
| 2026-04-30 10:14 | -27.22766 | 152.90138 | 7995 ft | 170 kts | 186° |
| 2026-04-30 10:14 | -27.23935 | 152.89851 | 7844 ft | 175 kts | 186° |
| 2026-04-30 10:14 | -27.26352 | 152.89257 | 7376 ft | 181 kts | 186° |
| 2026-04-30 10:15 | -27.27588 | 152.88955 | 7132 ft | 182 kts | 186° |
| 2026-04-30 10:15 | -27.28821 | 152.88651 | 6892 ft | 181 kts | 186° |
| 2026-04-30 10:15 | -27.30016 | 152.88362 | 6664 ft | 179 kts | 185° |
| 2026-04-30 10:15 | -27.31257 | 152.88060 | 6408 ft | 178 kts | 185° |
| 2026-04-30 10:16 | -27.32468 | 152.87758 | 6171 ft | 179 kts | 185° |
| 2026-04-30 10:16 | -27.33680 | 152.87459 | 5933 ft | 178 kts | 185° |
| 2026-04-30 10:16 | -27.34896 | 152.87167 | 5700 ft | 179 kts | 185° |
| 2026-04-30 10:17 | -27.37317 | 152.86574 | 5225 ft | 179 kts | 185° |
| 2026-04-30 10:17 | -27.39747 | 152.85973 | 4750 ft | 178 kts | 185° |
| 2026-04-30 10:17 | -27.40951 | 152.85677 | 4512 ft | 177 kts | 185° |
| 2026-04-30 10:18 | -27.42151 | 152.85383 | 4279 ft | 177 kts | 185° |
| 2026-04-30 10:18 | -27.43358 | 152.85085 | 4050 ft | 178 kts | 186° |
| 2026-04-30 10:18 | -27.44558 | 152.84937 | 3830 ft | 169 kts | 169° |
| 2026-04-30 10:19 | -27.46668 | 152.85672 | 3628 ft | 162 kts | 153° |
| 2026-04-30 10:19 | -27.47726 | 152.86151 | 3401 ft | 165 kts | 154° |
| 2026-04-30 10:19 | -27.48794 | 152.86637 | 3171 ft | 166 kts | 154° |
| 2026-04-30 10:19 | -27.49854 | 152.87130 | 2940 ft | 165 kts | 154° |
| 2026-04-30 10:20 | -27.50913 | 152.87605 | 2707 ft | 162 kts | 154° |
| 2026-04-30 10:20 | -27.52971 | 152.88614 | 2256 ft | 160 kts | 145° |
| 2026-04-30 10:20 | -27.53776 | 152.89419 | 2042 ft | 159 kts | 132° |
| 2026-04-30 10:21 | -27.54391 | 152.90500 | 1800 ft | 161 kts | 117° |
| 2026-04-30 10:21 | -27.54736 | 152.91699 | 1577 ft | 161 kts | 109° |
| 2026-04-30 10:21 | -27.55085 | 152.92906 | 1358 ft | 163 kts | 111° |
| 2026-04-30 10:21 | -27.55438 | 152.94103 | 1136 ft | 159 kts | 111° |
| 2026-04-30 10:22 | -27.55728 | 152.95153 | 933 ft | 125 kts | 110° |
| 2026-04-30 10:22 | -27.55970 | 152.95991 | 785 ft | 104 kts | 110° |
| 2026-04-30 10:22 | -27.56181 | 152.96726 | 661 ft | 87 kts | 111° |
| 2026-04-30 10:22 | -27.56354 | 152.97342 | 548 ft | 81 kts | 113° |
| 2026-04-30 10:23 | -27.56534 | 152.97948 | 424 ft | 82 kts | 111° |
| 2026-04-30 10:23 | -27.56713 | 152.98570 | 328 ft | 88 kts | 115° |
| 2026-04-30 10:23 | -27.56902 | 152.99229 | 201 ft | 81 kts | 112° |
| 2026-04-30 10:23 | -27.57040 | 152.99731 | 63 ft | 56 kts | 107° |
| 2026-04-30 10:24 | -27.57138 | 153.00103 | 43 ft | 43 kts | 111° |
| 2026-04-30 10:24 | -27.57237 | 153.00410 | 43 ft | 50 kts | 107° |
| 2026-04-30 10:24 | -27.57349 | 153.00826 | 40 ft | 56 kts | 107° |
| 2026-04-30 10:24 | -27.57407 | 153.01088 | 36 ft | 22 kts | 62° |
| 2026-04-30 10:25 | -27.57345 | 153.01118 | 39 ft | 10 kts | 9° |
| 2026-04-30 10:25 | -27.57249 | 153.01138 | 45 ft | 19 kts | 13° |
| 2026-04-30 10:25 | -27.57105 | 153.01177 | 51 ft | 19 kts | 7° |
| 2026-04-30 10:25 | -27.57072 | 153.01277 | 52 ft | 19 kts | 104° |
| 2026-04-30 10:26 | -27.57097 | 153.01333 | 50 ft | 0 kts | 313° |